»·PEaware :: N107MR KGEG-CYKA

N107MR :: KGEG-CYKA

FLIGHT INFORMATION

Flight Status: Arrived
Operator: Privately registered:
United States
More flights under this callsign
Pilot: Michael R. (16974)
Aircraft: ECLIPSE 500
(EA50)
More flights by this aircraft type
Origin: KGEG Spokane Intl
United States
Destination: CYKA Kamloops
Canada
More flights between these airports :: More routes between these airports
Route: YDC
File this flight plan on PilotEdge
Remarks:
Altitude:
(Current/Filed)
24,000ft
Speed:
(Current/Filed)
350kts
Departed: 10-Feb-18 08:07 PM
Arrived: 10-Feb-18 09:13 PM
Distance/Time
Traveled:
217nm/1:05
Distance/Time
To Go:
Arrived

Flight Plot

Page will automatically refresh every two minutes.

Flight plan parsing failed; only flown route is shown


Map Options




Map Legend


Flown Route
Filed Route
Departure Airport
Arrival Airport
Navaid (VOR, NDB)
Fix

Horizontal Profiles

Position Reports

Time Latitude Longitude Heading Altitude Ground
Speed
10-Feb-18 20:02 47.623773 -117.524462 269 2350ft 0kts
10-Feb-18 20:03 47.623773 -117.524462 269 2350ft 0kts
10-Feb-18 20:04 47.623773 -117.524462 269 2350ft 0kts
10-Feb-18 20:05 47.623773 -117.524462 269 2350ft 0kts
10-Feb-18 20:06 47.623773 -117.524462 269 2350ft 0kts
10-Feb-18 20:07 47.623773 -117.524462 269 2350ft 0kts
10-Feb-18 20:08 47.623773 -117.524462 269 2350ft 0kts
10-Feb-18 20:09 47.623773 -117.524462 269 2350ft 0kts
10-Feb-18 20:10 47.627752 -117.520025 44 2337ft 31kts
10-Feb-18 20:11 47.630513 -117.517488 313 2324ft 0kts
10-Feb-18 20:11 47.630513 -117.517488 313 2324ft 0kts
10-Feb-18 20:13 47.630632 -117.517668 314 2324ft 8kts
10-Feb-18 20:13 47.629667 -117.520555 223 2334ft 48kts
10-Feb-18 20:15 47.601628 -117.560886 219 4446ft 149kts
10-Feb-18 20:15 47.577937 -117.596571 267 6635ft 153kts
10-Feb-18 20:17 47.611637 -117.650089 312 9523ft 158kts
10-Feb-18 20:18 47.642457 -117.696125 313 11798ft 156kts
10-Feb-18 20:18 47.667225 -117.732837 315 13993ft 152kts
10-Feb-18 20:19 47.697302 -117.777115 315 16274ft 157kts
10-Feb-18 20:20 47.728112 -117.822458 316 18425ft 158kts
10-Feb-18 20:21 47.758412 -117.867024 316 20564ft 150kts
10-Feb-18 20:22 47.787900 -117.910471 316 22356ft 151kts
10-Feb-18 20:23 47.817152 -117.953640 316 23994ft 153kts
10-Feb-18 20:24 47.852967 -118.006531 315 24203ft 229kts
10-Feb-18 20:25 47.902455 -118.079846 315 24196ft 260kts
10-Feb-18 20:26 47.953740 -118.156052 315 24196ft 260kts
10-Feb-18 20:27 48.004883 -118.232266 315 24221ft 261kts
10-Feb-18 20:28 48.056571 -118.309462 315 24202ft 263kts
10-Feb-18 20:29 48.102443 -118.378257 315 24223ft 264kts
10-Feb-18 20:30 48.152778 -118.453922 315 24229ft 264kts
10-Feb-18 20:31 48.204580 -118.532020 315 24246ft 264kts
10-Feb-18 20:32 48.256045 -118.609846 315 24245ft 263kts
10-Feb-18 20:33 48.305372 -118.684674 314 24250ft 262kts
10-Feb-18 20:34 48.356605 -118.762557 314 24249ft 264kts
10-Feb-18 20:36 48.408589 -118.841899 314 24248ft 266kts
10-Feb-18 20:37 48.460218 -118.920932 314 24248ft 266kts
10-Feb-18 20:38 48.512018 -119.000465 314 24247ft 266kts
10-Feb-18 20:39 48.563691 -119.080047 314 24246ft 266kts
10-Feb-18 20:40 48.615446 -119.160001 314 24245ft 266kts
10-Feb-18 20:41 48.666895 -119.239731 314 24244ft 266kts
10-Feb-18 20:42 48.719056 -119.320795 314 24243ft 269kts
10-Feb-18 20:43 48.770950 -119.401748 314 24300ft 266kts
10-Feb-18 20:44 48.822441 -119.482303 314 24307ft 267kts
10-Feb-18 20:45 48.874190 -119.563515 314 24307ft 274kts
10-Feb-18 20:46 48.922980 -119.640323 314 24306ft 305kts
10-Feb-18 20:47 48.980217 -119.730720 313 24310ft 308kts
10-Feb-18 20:48 49.039935 -119.825336 313 24310ft 312kts
10-Feb-18 20:49 49.099901 -119.920757 313 24309ft 312kts
10-Feb-18 20:50 49.157436 -120.012634 313 24308ft 312kts
10-Feb-18 20:51 49.217221 -120.108447 313 24292ft 312kts
10-Feb-18 20:52 49.276536 -120.203890 313 24292ft 308kts
10-Feb-18 20:53 49.335756 -120.299466 313 24291ft 310kts
10-Feb-18 20:54 49.403229 -120.377247 339 24291ft 317kts
10-Feb-18 20:55 49.488271 -120.413282 341 24289ft 317kts
10-Feb-18 20:56 49.573712 -120.447023 341 24288ft 318kts
10-Feb-18 20:57 49.659259 -120.480246 341 24287ft 318kts
10-Feb-18 20:58 49.744823 -120.513418 341 24286ft 318kts
10-Feb-18 20:59 49.829804 -120.546430 341 24285ft 316kts
10-Feb-18 21:00 49.915143 -120.579012 342 24284ft 316kts
10-Feb-18 21:01 50.001235 -120.608840 343 24220ft 315kts
10-Feb-18 21:02 50.079805 -120.632007 345 22816ft 273kts
10-Feb-18 21:03 50.151461 -120.649642 346 21031ft 266kts
10-Feb-18 21:04 50.221786 -120.664040 347 19261ft 260kts
10-Feb-18 21:05 50.292073 -120.675374 349 17484ft 250kts
10-Feb-18 21:06 50.354948 -120.702075 317 15749ft 235kts
10-Feb-18 21:07 50.409926 -120.755425 332 14167ft 233kts
10-Feb-18 21:08 50.470724 -120.791920 338 12675ft 236kts
10-Feb-18 21:09 50.533506 -120.821681 340 11182ft 238kts
10-Feb-18 21:10 50.597499 -120.849135 342 9704ft 240kts
10-Feb-18 21:11 50.660659 -120.875176 342 8306ft 233kts
10-Feb-18 21:12 50.722250 -120.900292 343 6906ft 226kts
10-Feb-18 21:13 50.770766 -120.870293 88 6200ft 252kts
10-Feb-18 21:14 50.750184 -120.763495 100 5100ft 240kts
10-Feb-18 21:15 50.737620 -120.680622 100 4055ft 184kts
10-Feb-18 21:16 50.726478 -120.606107 101 3046ft 166kts
10-Feb-18 21:17 50.716174 -120.536479 101 2125ft 158kts
10-Feb-18 21:18 50.707633 -120.479094 102 1366ft 119kts
10-Feb-18 21:19 50.701334 -120.436932 103 1135ft 47kts
10-Feb-18 21:20 50.702834 -120.435270 282 1135ft 31kts
10-Feb-18 21:21 50.704367 -120.442383 194 1135ft 0kts
10-Feb-18 21:22 50.704367 -120.442383 194 1135ft 0kts

Navigation Log

Ident Type
Flight plan parsing failed, navigation log unavailable